createdAt,value
2019-06-10T00:00:50.816Z,102148.09
2019-06-10T00:03:25.634Z,102149.42
2019-06-10T00:06:00.865Z,102150.70
2019-06-10T00:08:32.917Z,102147.16
2019-06-10T00:11:05.072Z,102147.14
2019-06-10T00:13:38.103Z,102142.72
2019-06-10T00:16:21.614Z,102146.25
2019-06-10T00:18:51.321Z,102141.83
2019-06-10T00:21:25.382Z,102141.37
2019-06-10T00:23:54.912Z,102136.06
2019-06-10T00:26:30.825Z,102139.13
2019-06-10T00:29:23.767Z,102139.10
2019-06-10T00:32:06.523Z,102141.75
2019-06-10T00:34:35.805Z,102136.44
2019-06-10T00:37:14.338Z,102145.23
2019-06-10T00:39:46.578Z,102144.73
2019-06-10T00:42:21.433Z,102144.27
2019-06-10T00:44:54.108Z,102147.78
2019-06-10T00:47:27.454Z,102151.71
2019-06-10T00:50:05.203Z,102150.80
2019-06-10T00:52:38.114Z,102156.08
2019-06-10T00:55:11.804Z,102153.44
2019-06-10T00:57:57.861Z,102154.75
2019-06-10T01:00:35.483Z,102152.91
2019-06-10T01:03:15.310Z,102152.05
2019-06-10T01:06:03.452Z,102143.30
2019-06-10T01:08:40.572Z,102147.69
2019-06-10T01:11:31.007Z,102146.77
2019-06-10T01:14:01.554Z,102148.48
2019-06-10T01:16:54.386Z,102146.30
2019-06-10T01:19:50.901Z,102147.26
2019-06-10T01:22:31.579Z,102144.19
2019-06-10T01:25:05.523Z,102137.12
2019-06-10T01:27:40.905Z,102144.91
2019-06-10T01:30:23.518Z,102136.06
2019-06-10T01:33:08.262Z,102139.13
2019-06-10T01:35:48.284Z,102135.63
2019-06-10T01:38:24.033Z,102142.27
2019-06-10T01:41:01.705Z,102121.89
2019-06-10T01:43:40.669Z,102141.34
2019-06-10T01:46:14.143Z,102141.41
2019-06-10T01:48:48.307Z,102138.70
2019-06-10T01:51:31.538Z,102141.77
2019-06-10T01:54:15.286Z,102143.95
2019-06-10T01:56:51.012Z,102139.52
2019-06-10T01:59:25.346Z,102137.74
2019-06-10T02:02:02.883Z,102142.56
2019-06-10T02:07:24.518Z,102138.98
2019-06-10T02:10:01.145Z,102136.73
2019-06-10T02:12:32.038Z,102129.67
2019-06-10T02:15:03.409Z,102128.75
2019-06-10T02:17:33.741Z,102125.21
2019-06-10T02:20:04.275Z,102129.56
2019-06-10T02:22:41.079Z,102124.28
2019-06-10T02:25:15.121Z,102134.41
2019-06-10T02:27:47.295Z,102133.09
2019-06-10T02:30:50.519Z,102133.09
2019-06-10T02:33:37.020Z,102138.37
2019-06-10T02:36:18.215Z,102144.08
2019-06-10T02:39:07.773Z,102145.36
2019-06-10T02:41:44.808Z,102142.67
2019-06-10T02:44:21.751Z,102152.25
2019-06-10T02:47:09.015Z,102141.66
2019-06-10T02:49:59.109Z,102143.40
2019-06-10T02:52:32.987Z,102136.38
2019-06-10T02:55:05.609Z,102137.27
2019-06-10T02:57:40.280Z,102143.44
2019-06-10T03:00:20.869Z,102143.82
2019-06-10T03:02:55.749Z,102140.67
2019-06-10T03:05:49.100Z,102136.80
2019-06-10T03:08:27.449Z,102130.72
2019-06-10T03:11:05.747Z,102128.55
2019-06-10T03:13:45.177Z,102124.20
2019-06-10T03:16:34.625Z,102132.16
2019-06-10T03:19:07.399Z,102128.70
2019-06-10T03:21:52.265Z,102122.53
2019-06-10T03:24:25.350Z,102124.75
2019-06-10T03:27:23.573Z,102123.92
2019-06-10T03:30:14.779Z,102127.89
2019-06-10T03:32:48.858Z,102117.37
2019-06-10T03:35:27.235Z,102120.08
2019-06-10T03:38:06.334Z,102119.25
2019-06-10T03:40:40.580Z,102122.36
2019-06-10T03:43:23.812Z,102124.61
2019-06-10T03:46:09.635Z,102129.85
2019-06-10T03:49:13.296Z,102132.95
2019-06-10T03:51:45.742Z,102135.20
2019-06-10T03:54:19.282Z,102137.84
2019-06-10T03:56:56.029Z,102135.27
2019-06-10T03:59:39.095Z,102137.02
2019-06-10T04:02:28.494Z,102127.88
2019-06-10T04:05:46.337Z,102127.44
2019-06-10T04:08:52.269Z,102130.15
2019-06-10T04:11:42.848Z,102136.35
2019-06-10T04:14:25.076Z,102140.77
2019-06-10T04:17:08.574Z,102141.20
2019-06-10T04:20:09.379Z,102146.45
2019-06-10T04:22:37.765Z,102143.39
2019-06-10T04:25:11.996Z,102150.48
2019-06-10T04:27:42.438Z,102142.15
2019-06-10T04:30:16.327Z,102145.31
2019-06-10T04:32:47.528Z,102144.52
2019-06-10T04:35:24.383Z,102145.02
2019-06-10T04:37:57.876Z,102147.28
2019-06-10T04:40:44.906Z,102147.31
2019-06-10T04:43:20.514Z,102140.28
2019-06-10T04:45:54.600Z,102133.25
2019-06-10T04:48:28.093Z,102150.91
2019-06-10T04:51:08.335Z,102142.08
2019-06-10T04:53:52.432Z,102143.41
2019-06-10T04:56:42.881Z,102145.59
2019-06-10T04:59:15.756Z,102138.57
2019-06-10T05:01:53.061Z,102141.68
2019-06-10T05:04:32.826Z,102143.03
2019-06-10T05:07:13.851Z,102142.14
2019-06-10T05:12:52.594Z,102139.52
2019-06-10T05:15:48.807Z,102142.19
2019-06-10T05:18:22.561Z,102142.22
2019-06-10T05:20:58.779Z,102141.83
2019-06-10T05:23:33.225Z,102139.66
2019-06-10T05:26:06.598Z,102133.48
2019-06-10T05:28:43.520Z,102131.70
2019-06-10T05:31:15.055Z,102137.91
2019-06-10T05:33:48.886Z,102132.20
2019-06-10T05:36:20.618Z,102131.76
2019-06-10T05:38:52.717Z,102133.50
2019-06-10T05:41:34.827Z,102122.48
2019-06-10T05:44:25.238Z,102118.52
2019-06-10T05:46:58.729Z,102118.08
2019-06-10T05:49:36.279Z,102114.08
2019-06-10T05:52:12.629Z,102116.73
2019-06-10T05:54:46.204Z,102118.08
2019-06-10T05:57:33.503Z,102118.50
2019-06-10T06:00:14.625Z,102121.17
2019-06-10T06:05:45.535Z,102126.43
2019-06-10T06:08:15.850Z,102129.96
2019-06-10T06:10:59.759Z,102135.30
2019-06-10T06:13:34.171Z,102134.85
2019-06-10T06:16:23.082Z,102128.66
2019-06-10T06:18:58.927Z,102134.42
2019-06-10T06:21:34.961Z,102130.00
2019-06-10T06:24:04.819Z,102131.77
2019-06-10T06:26:59.500Z,102128.20
2019-06-10T06:29:39.921Z,102126.45
2019-06-10T06:32:13.058Z,102130.86
2019-06-10T06:34:43.365Z,102129.09
2019-06-10T06:37:17.866Z,102125.11
2019-06-10T06:39:52.316Z,102129.11
2019-06-10T06:42:23.032Z,102122.90
2019-06-10T06:45:03.063Z,102116.30
2019-06-10T06:47:35.700Z,102124.67
2019-06-10T06:50:07.874Z,102124.23
2019-06-10T06:53:12.549Z,102129.52
2019-06-10T06:55:15.766Z,102130.88
2019-06-10T06:57:53.356Z,102126.41
2019-06-10T07:00:53.150Z,102123.75
2019-06-10T07:03:12.556Z,102124.23
2019-06-10T07:06:13.166Z,102119.36
2019-06-10T07:09:00.225Z,102123.34
2019-06-10T07:11:33.955Z,102126.88
2019-06-10T07:14:05.276Z,102125.54
2019-06-10T07:16:37.780Z,102130.44
2019-06-10T07:19:08.948Z,102125.57
2019-06-10T07:22:11.395Z,102130.84
2019-06-10T07:24:36.033Z,102139.72
2019-06-10T07:27:05.960Z,102137.96
2019-06-10T07:29:54.393Z,102142.78
2019-06-10T07:32:25.455Z,102145.86
2019-06-10T07:34:55.738Z,102146.64
2019-06-10T07:37:34.935Z,102127.53
2019-06-10T07:40:25.667Z,102123.75
2019-06-10T07:43:02.413Z,102122.63
2019-06-10T07:45:33.817Z,102117.77
2019-06-10T07:48:04.316Z,102120.45
2019-06-10T07:50:36.532Z,102100.13
2019-06-10T07:53:07.923Z,102103.45
2019-06-10T07:55:41.348Z,102098.09
2019-06-10T07:58:15.862Z,102101.14
2019-06-10T08:00:48.498Z,102106.05
2019-06-10T08:03:18.585Z,102094.24
2019-06-10T08:05:52.478Z,102097.89
2019-06-10T08:08:32.854Z,102099.36
2019-06-10T08:11:05.723Z,102094.55
2019-06-10T08:13:47.967Z,102090.66
2019-06-10T08:16:18.359Z,102092.03
2019-06-10T08:19:15.952Z,102095.18
2019-06-10T08:21:22.696Z,102100.64
2019-06-10T08:23:54.057Z,102100.28
2019-06-10T08:26:23.423Z,102093.80
2019-06-10T08:28:53.307Z,102093.98
2019-06-10T08:31:22.931Z,102097.61
2019-06-10T08:33:53.353Z,102107.09
2019-06-10T08:36:23.596Z,102105.13
2019-06-10T08:38:53.383Z,102108.36
2019-06-10T08:41:23.312Z,102102.09
2019-06-10T08:43:53.155Z,102094.62
2019-06-10T08:46:22.842Z,102003.16
2019-06-10T08:48:52.742Z,102100.72
2019-06-10T08:51:23.713Z,102099.02
2019-06-10T08:53:53.547Z,102101.88
2019-06-10T08:56:23.005Z,102089.27
2019-06-10T08:58:54.027Z,102091.05
2019-06-10T09:01:23.757Z,102088.86
2019-06-10T09:03:53.888Z,102086.88
2019-06-10T09:06:23.421Z,102094.14
2019-06-10T09:08:54.557Z,102105.48
2019-06-10T09:11:24.810Z,102093.88
2019-06-10T09:13:55.062Z,102090.82
2019-06-10T09:16:26.049Z,102088.91
2019-06-10T09:18:59.051Z,102082.98
2019-06-10T09:21:35.096Z,102082.13
2019-06-10T09:24:13.043Z,102079.47
2019-06-10T09:26:54.820Z,102080.64
2019-06-10T09:29:32.732Z,102068.91
2019-06-10T09:32:03.531Z,102076.20
2019-06-10T09:34:41.376Z,102069.12
2019-06-10T09:37:16.497Z,102072.38
2019-06-10T09:39:59.229Z,102069.80
2019-06-10T09:42:33.299Z,102050.56
2019-06-10T09:45:03.712Z,102056.31
2019-06-10T09:47:44.502Z,102056.00
2019-06-10T09:50:16.104Z,102050.50
2019-06-10T09:52:50.446Z,102061.73
2019-06-10T09:55:23.345Z,102051.39
2019-06-10T09:57:59.968Z,102053.39
2019-06-10T10:00:48.499Z,102058.80
2019-06-10T10:03:16.635Z,102063.11
2019-06-10T10:05:59.444Z,102056.98
2019-06-10T10:08:32.703Z,102052.86
2019-06-10T10:11:03.264Z,102047.23
2019-06-10T10:13:35.336Z,102054.72
2019-06-10T10:16:10.275Z,102045.70
2019-06-10T10:18:47.276Z,102047.88
2019-06-10T10:21:57.141Z,102050.52
2019-06-10T10:24:33.447Z,102053.17
2019-06-10T10:27:09.475Z,102059.05
2019-06-10T10:29:47.162Z,102058.72
2019-06-10T10:32:23.162Z,102058.85
2019-06-10T10:34:56.577Z,102059.30
2019-06-10T10:37:35.866Z,102062.73
2019-06-10T10:40:07.588Z,102048.05
2019-06-10T10:42:44.997Z,102049.61
2019-06-10T10:45:13.325Z,102053.21
2019-06-10T10:47:47.136Z,102053.44
2019-06-10T10:50:22.522Z,102052.02
2019-06-10T10:52:55.099Z,102046.68
2019-06-10T10:55:28.183Z,102044.38
2019-06-10T10:58:19.853Z,102036.95
2019-06-10T11:00:57.680Z,102034.03
2019-06-10T11:03:26.258Z,102035.99
2019-06-10T11:06:00.931Z,102032.48
2019-06-10T11:08:35.297Z,102036.12
2019-06-10T11:11:13.599Z,102045.98
2019-06-10T11:13:47.380Z,102043.38
2019-06-10T11:16:27.415Z,102036.64
2019-06-10T11:19:02.549Z,102025.70
2019-06-10T11:21:33.030Z,102029.71
2019-06-10T11:24:04.836Z,102028.27
2019-06-10T11:26:38.835Z,102032.17
2019-06-10T11:29:11.236Z,102027.83
2019-06-10T11:31:46.295Z,102029.60
2019-06-10T11:34:23.475Z,102034.02
2019-06-10T11:36:55.087Z,102036.94
2019-06-10T11:39:26.699Z,102033.08
2019-06-10T11:41:57.955Z,102029.69
2019-06-10T11:44:33.974Z,102024.23
2019-06-10T11:47:06.025Z,102026.02
2019-06-10T11:49:36.284Z,102028.14
2019-06-10T11:52:07.777Z,102019.58
2019-06-10T11:54:53.654Z,102017.64
2019-06-10T11:57:09.009Z,102022.38
2019-06-10T11:59:39.144Z,102017.63
2019-06-10T12:02:09.123Z,102021.42
2019-06-10T12:04:39.042Z,102017.48
2019-06-10T12:07:09.056Z,102022.20
2019-06-10T12:09:44.175Z,102020.37
2019-06-10T12:12:16.054Z,102021.43
2019-06-10T12:14:46.005Z,102022.03
2019-06-10T12:17:40.089Z,102020.30
2019-06-10T12:19:56.480Z,102019.14
2019-06-10T12:22:33.085Z,102006.72
2019-06-10T12:25:30.537Z,101998.15
2019-06-10T12:27:38.057Z,102004.89
2019-06-10T12:30:14.201Z,101995.17
2019-06-10T12:32:45.451Z,101990.81
2019-06-10T12:41:23.206Z,101980.20
2019-06-10T12:43:54.776Z,101986.17
2019-06-10T12:46:26.658Z,101981.11
2019-06-10T12:49:01.714Z,101981.66
2019-06-10T12:51:34.049Z,101979.37
2019-06-10T12:54:06.228Z,101984.22
2019-06-10T12:56:42.358Z,101975.63
2019-06-10T12:59:18.027Z,101968.50
2019-06-10T13:01:52.936Z,101963.98
2019-06-10T13:04:22.173Z,101956.92
2019-06-10T13:06:55.967Z,101946.39
2019-06-10T13:09:34.384Z,101950.89
2019-06-10T13:12:05.379Z,101945.16
2019-06-10T13:14:36.793Z,101940.92
2019-06-10T13:17:15.972Z,101938.43
2019-06-10T13:19:47.472Z,101944.50
2019-06-10T13:22:19.805Z,101942.38
2019-06-10T13:24:53.564Z,101945.24
2019-06-10T13:27:23.689Z,101950.16
2019-06-10T13:29:59.893Z,101946.16
2019-06-10T13:32:32.460Z,101943.08
2019-06-10T13:35:12.458Z,101934.98
2019-06-10T13:37:45.263Z,101939.69
2019-06-10T13:40:26.369Z,101944.43
2019-06-10T13:42:57.939Z,101946.46
2019-06-10T13:45:34.523Z,101944.64
2019-06-10T13:48:11.533Z,101937.70
2019-06-10T13:50:42.232Z,101944.06
2019-06-10T13:53:14.180Z,101948.50
2019-06-10T13:55:47.088Z,101948.70
2019-06-10T13:58:23.182Z,101939.53
2019-06-10T14:01:04.053Z,101937.13
2019-06-10T14:03:35.557Z,101938.74
2019-06-10T14:06:32.325Z,101934.23
2019-06-10T14:08:43.821Z,101932.96
2019-06-10T14:11:16.145Z,101935.33
2019-06-10T14:13:45.813Z,101937.45
2019-06-10T14:16:16.277Z,101932.70
2019-06-10T14:18:56.165Z,101928.03
2019-06-10T14:21:33.076Z,101931.23
2019-06-10T14:24:06.290Z,101928.05
2019-06-10T14:26:48.639Z,101923.24
2019-06-10T14:29:18.391Z,101923.64
2019-06-10T14:31:58.931Z,101931.41
2019-06-10T14:34:34.438Z,101931.86
2019-06-10T14:37:07.730Z,101915.61
2019-06-10T14:39:52.923Z,101918.63
2019-06-10T14:42:32.205Z,101916.10
2019-06-10T14:45:06.695Z,101918.03
2019-06-10T14:47:36.748Z,101920.57
2019-06-10T14:50:08.751Z,101921.23
2019-06-10T14:52:38.540Z,101913.36
2019-06-10T14:55:09.305Z,101916.69
2019-06-10T14:57:42.615Z,101912.78
2019-06-10T15:00:16.119Z,101909.27
2019-06-10T15:02:43.964Z,101903.11
2019-06-10T15:05:16.113Z,101904.16
2019-06-10T15:07:46.602Z,101899.07
2019-06-10T15:10:17.886Z,101907.58
2019-06-10T15:12:48.820Z,101894.17
2019-06-10T15:15:20.438Z,101892.55
2019-06-10T15:17:52.489Z,101879.67
2019-06-10T15:20:22.762Z,101785.99
2019-06-10T15:22:52.859Z,101873.52
2019-06-10T15:25:27.552Z,101877.44
2019-06-10T15:27:54.675Z,101879.61
2019-06-10T15:30:28.077Z,101888.98
2019-06-10T15:33:02.881Z,101885.17
2019-06-10T15:35:34.562Z,101879.08
2019-06-10T15:38:05.418Z,101879.62
2019-06-10T15:40:35.240Z,101887.05
2019-06-10T15:43:09.623Z,101888.92
2019-06-10T15:45:45.576Z,101884.17
2019-06-10T15:48:18.840Z,101888.89
2019-06-10T15:50:52.103Z,101889.88
2019-06-10T15:53:25.392Z,101884.25
2019-06-10T15:56:18.220Z,101886.60
2019-06-10T15:58:26.815Z,101889.12
2019-06-10T16:01:02.552Z,101894.22
2019-06-10T16:03:33.066Z,101902.42
2019-06-10T16:06:03.318Z,101895.05
2019-06-10T16:08:33.576Z,101888.05
2019-06-10T16:11:03.374Z,101890.46
2019-06-10T16:13:33.035Z,101889.76
2019-06-10T16:16:03.621Z,101889.95
2019-06-10T16:18:37.763Z,101874.06
2019-06-10T16:21:15.107Z,101879.72
2019-06-10T16:23:53.398Z,101882.77
2019-06-10T16:26:36.469Z,101883.96
2019-06-10T16:29:08.696Z,101878.67
2019-06-10T16:31:42.709Z,101873.26
2019-06-10T16:34:12.913Z,101870.56
2019-06-10T16:36:45.287Z,101863.38
2019-06-10T16:39:19.015Z,101868.10
2019-06-10T16:41:54.181Z,101869.00
2019-06-10T16:44:34.642Z,101863.80
2019-06-10T16:47:05.178Z,101865.57
2019-06-10T16:49:38.565Z,101861.88
2019-06-10T16:52:09.143Z,101867.78
2019-06-10T16:54:41.938Z,101864.69
2019-06-10T16:57:27.275Z,101874.80
2019-06-10T16:59:57.081Z,101868.74
2019-06-10T17:02:30.075Z,101868.29
2019-06-10T17:05:03.154Z,101873.63
2019-06-10T17:07:34.198Z,101872.72
2019-06-10T17:10:06.643Z,101867.67
2019-06-10T17:12:38.837Z,101866.00
2019-06-10T17:15:12.900Z,101864.23
2019-06-10T17:17:45.688Z,101864.28
2019-06-10T17:20:23.598Z,101866.94
2019-06-10T17:22:54.412Z,101865.54
2019-06-10T17:25:26.908Z,101867.19
2019-06-10T17:28:15.135Z,101864.14
2019-06-10T17:30:30.964Z,101858.19
2019-06-10T17:33:04.238Z,101866.56
2019-06-10T17:35:36.830Z,101867.53
2019-06-10T17:38:12.216Z,101850.83
2019-06-10T17:40:44.675Z,101842.95
2019-06-10T17:43:14.224Z,101847.16
2019-06-10T17:45:44.468Z,101851.93
2019-06-10T17:48:16.500Z,101849.02
2019-06-10T17:50:52.273Z,101850.16
2019-06-10T17:53:24.613Z,101843.80
2019-06-10T17:55:59.333Z,101836.55
2019-06-10T17:58:43.355Z,101841.45
2019-06-10T18:01:04.099Z,101838.02
2019-06-10T18:03:37.757Z,101828.03
2019-06-10T18:06:09.330Z,101829.77
2019-06-10T18:08:47.555Z,101829.38
2019-06-10T18:11:18.494Z,101831.42
2019-06-10T18:13:56.700Z,101821.29
2019-06-10T18:16:28.262Z,101820.92
2019-06-10T18:18:59.172Z,101819.59
2019-06-10T18:21:34.706Z,101820.73
2019-06-10T18:24:08.466Z,101816.34
2019-06-10T18:26:44.874Z,101813.87
2019-06-10T18:29:22.792Z,101818.56
2019-06-10T18:31:55.010Z,101818.48
2019-06-10T18:34:25.689Z,101819.69
2019-06-10T18:36:59.084Z,101825.66
2019-06-10T18:39:59.515Z,101820.23
2019-06-10T18:42:33.135Z,101829.89
2019-06-10T18:45:04.805Z,101828.55
2019-06-10T18:47:37.264Z,101821.56
2019-06-10T18:50:09.232Z,101819.49
2019-06-10T18:52:43.132Z,101815.95
2019-06-10T18:55:12.707Z,101816.05
2019-06-10T18:57:45.426Z,101818.92
2019-06-10T19:00:15.672Z,101816.48
2019-06-10T19:02:46.086Z,101825.26
2019-06-10T19:05:17.420Z,101811.55
2019-06-10T19:07:52.888Z,101809.03
2019-06-10T19:10:24.185Z,101814.84
2019-06-10T19:13:02.331Z,101814.00
2019-06-10T19:15:31.904Z,101816.80
2019-06-10T19:18:06.478Z,101812.52
2019-06-10T19:20:45.266Z,101821.47
2019-06-10T19:23:18.191Z,101826.97
2019-06-10T19:26:05.105Z,101822.69
2019-06-10T19:28:38.757Z,101818.30
2019-06-10T19:31:11.200Z,101825.61
2019-06-10T19:33:45.606Z,101833.72
2019-06-10T19:36:19.717Z,101837.72
2019-06-10T19:38:50.003Z,101839.60
2019-06-10T19:41:22.397Z,101840.83
2019-06-10T19:43:56.070Z,101845.38
2019-06-10T19:46:27.926Z,101854.32
2019-06-10T19:49:03.263Z,101856.69
2019-06-10T19:51:48.977Z,101856.73
2019-06-10T19:54:19.757Z,101851.06
2019-06-10T19:56:52.340Z,101855.11
2019-06-10T19:59:28.099Z,101852.94
2019-06-10T20:01:59.094Z,101854.31
2019-06-10T20:04:35.918Z,101855.30
2019-06-10T20:07:20.136Z,101854.90
2019-06-10T20:09:52.222Z,101858.95
2019-06-10T20:12:25.825Z,101858.56
2019-06-10T20:14:56.991Z,101855.10
2019-06-10T20:17:32.770Z,101849.86
2019-06-10T20:20:09.228Z,101846.39
2019-06-10T20:22:43.614Z,101846.44
2019-06-10T20:25:17.280Z,101842.13
2019-06-10T20:27:59.347Z,101843.03
2019-06-10T20:30:33.240Z,101839.52
2019-06-10T20:33:05.858Z,101851.02
2019-06-10T20:35:58.673Z,101856.34
2019-06-10T20:38:38.487Z,101842.19
2019-06-10T20:41:12.701Z,101856.87
2019-06-10T20:43:44.382Z,101860.91
2019-06-10T20:46:18.876Z,101857.41
2019-06-10T20:48:54.570Z,101859.17
2019-06-10T20:51:27.528Z,101853.86
2019-06-10T20:54:02.632Z,101859.27
2019-06-10T20:56:41.091Z,101852.29
2019-06-10T20:59:13.260Z,101847.93
2019-06-10T21:01:49.155Z,101832.05
2019-06-10T21:04:27.551Z,101846.33
2019-06-10T21:07:05.111Z,101847.33
2019-06-10T21:09:39.759Z,101843.89
2019-06-10T21:12:13.020Z,101844.78
2019-06-10T21:14:45.675Z,101843.09
2019-06-10T21:17:18.988Z,101838.66
2019-06-10T21:19:53.760Z,101840.95
2019-06-10T21:22:47.531Z,101831.60
2019-06-10T21:25:24.643Z,101836.95
2019-06-10T21:28:02.740Z,101839.21
2019-06-10T21:30:49.658Z,101842.76
2019-06-10T21:33:43.799Z,101838.33
2019-06-10T21:36:18.833Z,101841.43
2019-06-10T21:38:56.894Z,101837.88
2019-06-10T21:41:37.007Z,101828.12
2019-06-10T21:44:14.997Z,101832.52
2019-06-10T21:46:50.329Z,101834.25
2019-06-10T21:49:28.521Z,101830.27
2019-06-10T21:52:02.819Z,101836.91
2019-06-10T21:57:45.638Z,101832.08
2019-06-10T22:00:52.047Z,101830.75
2019-06-10T22:03:12.545Z,101822.03
2019-06-10T22:06:06.460Z,101825.66
2019-06-10T22:08:50.058Z,101823.91
2019-06-10T22:11:31.365Z,101822.18
2019-06-10T22:14:17.097Z,101815.20
2019-06-10T22:16:52.907Z,101812.53
2019-06-10T22:19:26.562Z,101813.39
2019-06-10T22:22:18.437Z,101812.46
2019-06-10T22:24:53.620Z,101799.23
2019-06-10T22:27:47.848Z,101796.20
2019-06-10T22:30:20.074Z,101798.05
2019-06-10T22:33:06.830Z,101794.17
2019-06-10T22:36:06.024Z,101795.53
2019-06-10T22:38:43.018Z,101803.95
2019-06-10T22:41:22.556Z,101796.90
2019-06-10T22:43:55.780Z,101800.95
2019-06-10T22:46:32.196Z,101805.34
2019-06-10T22:49:05.196Z,101802.28
2019-06-10T22:51:42.874Z,101804.12
2019-06-10T22:54:21.182Z,101807.22
2019-06-10T22:56:58.153Z,101805.89
2019-06-10T22:59:48.649Z,101813.45
2019-06-10T23:05:33.102Z,101808.64
2019-06-10T23:08:12.605Z,101809.53
2019-06-10T23:11:03.311Z,101805.13
2019-06-10T23:13:50.637Z,101805.23
2019-06-10T23:16:23.888Z,101811.49
2019-06-10T23:18:59.874Z,101809.78
2019-06-10T23:21:35.897Z,101807.63
2019-06-10T23:24:13.465Z,101802.31
2019-06-10T23:26:53.764Z,101799.21
2019-06-10T23:29:36.132Z,101796.52
2019-06-10T23:32:42.237Z,101785.05
2019-06-10T23:35:32.177Z,101770.94
2019-06-10T23:38:08.376Z,101773.59
2019-06-10T23:41:01.503Z,101773.62
2019-06-10T23:43:42.338Z,101766.98
2019-06-10T23:46:38.351Z,101770.93
2019-06-10T23:49:35.965Z,101772.73
2019-06-10T23:52:08.019Z,101779.88
2019-06-10T23:58:17.794Z,101773.77
